Native Dancer — WDH7934 — position and weather

sailwx.info

Track history (hours):
 
Tides and Currents Weather Stations Pressure Air Temp Water Temp Dewpoint Dewpoint Depression Visibility Wind Speed Wind Dir Waves Ship Positions

Native Dancer

Owner: Turn Services, LLC, New Orleans, LA. More information available from US FCC via Universal Licensing System and Coast Guard Vessel Documentation Center.

Last reported at 2017-Oct-10 19:15 UTC. Time now 2017-Oct-18 16:42 UTC.
Position N 29°33' W 090°27'.

Length 22 m; draft 3 m.

Type: Towing. MMSI: 367653030.

Date/timePositionNaut miles runAvg speedWind from/ knotsBaromVisibWave heightAir tempDewpointWater temp
2017-Oct-10 19:15N 29°33' W 090°27'1 4.0
2017-Oct-10 18:56N 29°33' W 090°28'2 3.9
2017-Oct-10 18:30N 29°34' W 090°30'2 4.0
2017-Oct-10 18:00N 29°34' W 090°32'2 3.8
2017-Oct-10 17:30N 29°34' W 090°34'2 3.4
2017-Oct-10 17:00N 29°35' W 090°36'2 3.8
2017-Oct-10 16:30N 29°35' W 090°38'0 0.5
2017-Oct-10 16:00N 29°35' W 090°39'2 3.1
2017-Oct-10 15:30N 29°36' W 090°40'2 3.9
2017-Oct-10 15:00N 29°37' W 090°42'3 3.5
2017-Oct-10 14:00N 29°34' W 090°44'2 4.2
2017-Oct-10 13:30N 29°32' W 090°46'0 0.2
2017-Oct-10 13:00N 29°32' W 090°46'0 0.0
2017-Oct-10 12:30N 29°32' W 090°46'1 1.7
2017-Oct-10 12:00N 29°32' W 090°47'3 5.0
2017-Oct-10 11:30N 29°32' W 090°50'64 3.7
2017-Oct-09 18:26N 29°50' W 092°00'2 4.5
2017-Oct-09 18:00N 29°49' W 092°02'2 3.9
2017-Oct-09 17:30N 29°48' W 092°04'1 2.9
2017-Oct-09 17:00N 29°48' W 092°06'2 3.7
2017-Oct-09 16:30N 29°47' W 092°08'2 3.9
2017-Oct-09 16:00N 29°47' W 092°10'2 3.4
2017-Oct-09 15:30N 29°47' W 092°12'1 1.7
2017-Oct-09 15:00N 29°47' W 092°13'1 1.3
2017-Oct-09 14:30N 29°48' W 092°13'1 1.3
2017-Oct-09 14:00N 29°48' W 092°14'1 1.5
2017-Oct-09 13:30N 29°48' W 092°15'1 2.5
2017-Oct-09 13:00N 29°49' W 092°16'2 4.3
2017-Oct-09 12:29N 29°50' W 092°18'39 3.5
2017-Oct-09 01:15N 29°56' W 093°03'1 4.3
2017-Oct-09 00:59N 29°56' W 093°04'2 3.9
2017-Oct-09 00:30N 29°56' W 093°07'2 3.8
2017-Oct-09 00:00N 29°56' W 093°09'2 3.6
2017-Oct-08 23:30N 29°57' W 093°10'2 4.0
2017-Oct-08 23:00N 29°59' W 093°12'2 4.1
2017-Oct-08 22:30N 30°00' W 093°14'2 3.6
2017-Oct-08 22:00N 30°02' W 093°14'2 3.3
2017-Oct-08 21:30N 30°03' W 093°16'2 3.2
2017-Oct-08 21:00N 30°04' W 093°16'1 2.6
2017-Oct-08 20:30N 30°05' W 093°18'1 1.2
2017-Oct-08 20:00N 30°06' W 093°18'1 1.7
2017-Oct-08 19:30N 30°06' W 093°19'0 0.0
2017-Oct-08 19:00N 30°06' W 093°19'0 0.1
2017-Oct-08 18:30N 30°06' W 093°19'0 0.0
2017-Oct-08 18:00N 30°06' W 093°19'0 0.1
2017-Oct-08 17:30N 30°06' W 093°19'0 0.0
2017-Oct-08 17:00N 30°06' W 093°19'1 2.0
2017-Oct-08 16:30N 30°05' W 093°20'2 4.2
2017-Oct-08 16:00N 30°04' W 093°21'2 4.2
2017-Oct-08 15:30N 30°04' W 093°24'2 3.1
2017-Oct-08 15:00N 30°04' W 093°25'0 0.0
2017-Oct-08 14:30N 30°04' W 093°25'0 0.0
2017-Oct-08 14:00N 30°04' W 093°25'0 0.5
2017-Oct-08 13:30N 30°04' W 093°26'0 0.1
2017-Oct-08 13:00N 30°04' W 093°26'0 0.1
2017-Oct-08 12:30N 30°04' W 093°26'0 0.0
2017-Oct-08 12:00N 30°04' W 093°26'0 0.0
2017-Oct-08 11:30N 30°04' W 093°26'0 0.7
2017-Oct-08 11:00N 30°04' W 093°26'1 2.3
2017-Oct-08 10:30N 30°04' W 093°28'1 2.3
2017-Oct-08 10:00N 30°04' W 093°29'0 1.0
2017-Oct-08 09:30N 30°04' W 093°29'0 0.8
2017-Oct-08 08:59N 30°04' W 093°30'1 2.2
2017-Oct-08 08:30N 30°04' W 093°31'2 4.1
2017-Oct-08 08:00N 30°04' W 093°33'2 4.1
2017-Oct-08 07:29N 30°04' W 093°36'3 4.2
2017-Oct-08 06:53N 30°04' W 093°39'72 3.6
2017-Oct-07 11:01N 29°29' W 094°52'1 5.4
2017-Oct-07 10:55N 29°30' W 094°52'2 5.6
2017-Oct-07 10:30N 29°31' W 094°53'3 5.6
2017-Oct-07 10:00N 29°34' W 094°55'3 5.6
2017-Oct-07 09:30N 29°36' W 094°57'2 4.6
2017-Oct-07 09:00N 29°38' W 094°58'2 4.7
2017-Oct-07 08:30N 29°41' W 094°59'2 4.5
2017-Oct-07 08:00N 29°42' W 095°01'2 4.3
2017-Oct-07 07:30N 29°44' W 095°02'3 4.6
2017-Oct-07 06:56N 29°46' W 095°04'1 2.4
2017-Oct-07 06:29N 29°46' W 095°05'0 0.0
2017-Oct-07 05:46N 29°46' W 095°05'0 1.1
2017-Oct-07 05:30N 29°46' W 095°05'1 0.8
2017-Oct-07 04:51N 29°46' W 095°06'0 0.1
2017-Oct-07 02:39N 29°46' W 095°06'0 1.0
2017-Oct-07 02:09N 29°45' W 095°06'1 2.7
2017-Oct-07 01:55N 29°46' W 095°05'0 0.2
2017-Oct-07 01:26N 29°46' W 095°05'1 1.5
2017-Oct-07 00:52N 29°46' W 095°04'2 4.4
2017-Oct-07 00:29N 29°44' W 095°03'2 4.3
2017-Oct-06 23:58N 29°43' W 095°01'1 3.0
2017-Oct-06 23:30N 29°42' W 095°00'3 5.1
2017-Oct-06 23:00N 29°40' W 094°58'3 5.4
2017-Oct-06 22:30N 29°37' W 094°58'3 5.2
2017-Oct-06 22:00N 29°35' W 094°56'3 5.3
2017-Oct-06 21:30N 29°33' W 094°54'45 3.3
2017-Oct-06 07:58N 29°45' W 094°05'24 5.4
2017-Oct-06 03:28N 30°02' W 093°44'2 5.3
2017-Oct-06 03:00N 30°03' W 093°42'2 4.7
2017-Oct-06 02:30N 30°04' W 093°40'2 4.6
2017-Oct-06 02:00N 30°04' W 093°37'2 4.9
2017-Oct-06 01:30N 30°04' W 093°34'3 5.2
2017-Oct-06 01:00N 30°04' W 093°31'3 5.1
2017-Oct-06 00:30N 30°04' W 093°28'3 5.2
2017-Oct-06 00:00N 30°04' W 093°25'2 4.7
2017-Oct-05 23:30N 30°04' W 093°22'2 3.9
2017-Oct-05 23:00N 30°04' W 093°20'2 4.5
2017-Oct-05 22:30N 30°06' W 093°19'1 2.7
2017-Oct-05 22:00N 30°05' W 093°18'1 2.7
2017-Oct-05 21:30N 30°04' W 093°16'0 0.1
2017-Oct-05 21:00N 30°04' W 093°16'0 0.0
2017-Oct-05 20:30N 30°04' W 093°16'0 0.0
2017-Oct-05 20:00N 30°04' W 093°16'1 1.5
2017-Oct-05 19:30N 30°04' W 093°16'0 0.0
2017-Oct-05 19:00N 30°04' W 093°16'0 0.0
2017-Oct-05 18:30N 30°04' W 093°16'0 0.3
2017-Oct-05 18:00N 30°04' W 093°16'2 3.6
2017-Oct-05 17:30N 30°02' W 093°15'1 2.9
2017-Oct-05 17:00N 30°01' W 093°14'5 3.3
2017-Oct-05 15:30N 29°57' W 093°10'6 2.4
2017-Oct-05 12:54N 29°56' W 093°03'38 3.4
2017-Oct-05 01:52N 29°51' W 092°20'2 4.1
2017-Oct-05 01:28N 29°50' W 092°18'2 3.7
2017-Oct-05 01:00N 29°49' W 092°17'2 3.9
2017-Oct-05 00:30N 29°48' W 092°15'2 4.1
2017-Oct-05 00:00N 29°47' W 092°13'1 1.2
2017-Oct-04 23:30N 29°47' W 092°12'1 1.2
2017-Oct-04 23:00N 29°47' W 092°11'0 0.1
2017-Oct-04 22:30N 29°47' W 092°11'1 3.0
2017-Oct-04 22:00N 29°47' W 092°10'2 4.1
2017-Oct-04 21:30N 29°47' W 092°07'6 3.4
2017-Oct-04 19:38N 29°50' W 092°01'0 0.4
2017-Oct-04 19:30N 29°50' W 092°01'0 0.1
2017-Oct-04 19:00N 29°50' W 092°01'2 3.3
2017-Oct-04 18:30N 29°49' W 092°02'2 4.0
2017-Oct-04 18:00N 29°48' W 092°05'2 3.8
2017-Oct-04 17:30N 29°48' W 092°07'2 3.9
2017-Oct-04 17:00N 29°47' W 092°09'2 3.8
2017-Oct-04 16:30N 29°47' W 092°11'1 2.7
2017-Oct-04 16:00N 29°47' W 092°12'1 1.4
2017-Oct-04 15:30N 29°47' W 092°13'1 2.3
2017-Oct-04 15:00N 29°48' W 092°14'0 0.6
2017-Oct-04 14:30N 29°48' W 092°15'1 1.7
2017-Oct-04 14:00N 29°48' W 092°16'45 3.7
2017-Oct-04 01:52N 29°56' W 093°06'1 3.3
2017-Oct-04 01:30N 29°56' W 093°08'2 3.5
2017-Oct-04 01:00N 29°56' W 093°10'2 3.4
2017-Oct-04 00:30N 29°58' W 093°11'2 3.9
2017-Oct-04 00:00N 29°59' W 093°12'2 3.8
2017-Oct-03 23:30N 30°01' W 093°14'2 3.1
2017-Oct-03 23:00N 30°02' W 093°15'2 3.0
2017-Oct-03 22:30N 30°03' W 093°16'2 3.8
2017-Oct-03 22:00N 30°05' W 093°17'1 1.8
2017-Oct-03 21:30N 30°05' W 093°18'1 2.2
2017-Oct-03 21:00N 30°06' W 093°19'0 0.5
2017-Oct-03 20:30N 30°06' W 093°19'0 0.0
2017-Oct-03 20:00N 30°06' W 093°19'0 0.0
2017-Oct-03 19:30N 30°06' W 093°19'0 0.0
2017-Oct-03 19:00N 30°06' W 093°19'0 0.2
2017-Oct-03 18:30N 30°06' W 093°19'2 3.6
2017-Oct-03 18:00N 30°05' W 093°20'2 3.2
2017-Oct-03 17:30N 30°04' W 093°22'0 0.6
2017-Oct-03 17:00N 30°04' W 093°22'0 0.0
2017-Oct-03 16:30N 30°04' W 093°22'0 0.0
2017-Oct-03 16:00N 30°04' W 093°22'0 0.0
2017-Oct-03 15:30N 30°04' W 093°22'0 0.1
2017-Oct-03 15:00N 30°04' W 093°22'0 0.0
2017-Oct-03 14:00N 30°04' W 093°22'0 0.1
2017-Oct-03 13:30N 30°04' W 093°22'0 0.0
2017-Oct-03 13:00N 30°04' W 093°22'0 0.0
2017-Oct-03 12:30N 30°04' W 093°22'0 0.1
2017-Oct-03 12:00N 30°04' W 093°22'1 2.7
2017-Oct-03 11:30N 30°04' W 093°24'3 4.7
2017-Oct-03 10:54N 30°04' W 093°27'2 4.8
2017-Oct-03 10:30N 30°04' W 093°29'3 4.9
2017-Oct-03 09:54N 30°04' W 093°32'77 3.2
2017-Oct-02 09:52N 29°30' W 094°52'2 4.8
2017-Oct-02 09:30N 29°31' W 094°53'2 4.5
2017-Oct-02 09:00N 29°33' W 094°54'2 5.0
2017-Oct-02 08:30N 29°35' W 094°56'3 5.1
2017-Oct-02 08:00N 29°37' W 094°58'3 5.4
2017-Oct-02 07:30N 29°40' W 094°59'2 4.8
2017-Oct-02 07:00N 29°42' W 094°60'2 3.5
2017-Oct-02 06:23N 29°44' W 095°01'2 4.3
2017-Oct-02 06:00N 29°44' W 095°03'2 3.7
2017-Oct-02 05:21N 29°46' W 095°05'1 1.7
2017-Oct-02 04:55N 29°45' W 095°06'0 0.2
2017-Oct-02 04:03N 29°46' W 095°06'0 0.0
2017-Oct-02 03:59N 29°46' W 095°06'0 0.1
2017-Oct-02 03:02N 29°46' W 095°06'0 0.4
2017-Oct-02 02:53N 29°46' W 095°06'0 0.2
2017-Oct-02 02:26N 29°46' W 095°06'0 0.0
2017-Oct-02 01:58N 29°46' W 095°06'0 0.2
2017-Oct-02 01:28N 29°46' W 095°06'3 2.8
2017-Oct-02 00:34N 29°44' W 095°03'0 5.6
2017-Oct-02 00:30N 29°44' W 095°03'2 4.6
2017-Oct-02 00:00N 29°42' W 095°01'3 5.3
2017-Oct-01 23:30N 29°41' W 094°59'3 5.9
2017-Oct-01 23:00N 29°38' W 094°58'3 6.0
2017-Oct-01 22:30N 29°35' W 094°56'  
Track history (hours):
 
Tides and Currents Weather Stations Pressure Air Temp Water Temp Dewpoint Dewpoint Depression Visibility Wind Speed Wind Dir Waves Ship Positions

Native Dancer

Owner: Turn Services, LLC, New Orleans, LA. More information available from US FCC via Universal Licensing System and Coast Guard Vessel Documentation Center.

Last reported at 2017-Oct-10 19:15 UTC. Time now 2017-Oct-18 16:42 UTC.
Position N 29°33' W 090°27'.

Length 22 m; draft 3 m.

Type: Towing. MMSI: 367653030.

Date/timePositionNaut miles runAvg speedWind from/ knotsBaromVisibWave heightAir tempDewpointWater temp
2017-Oct-10 19:15N 29°33' W 090°27'1 4.0
2017-Oct-10 18:56N 29°33' W 090°28'2 3.9
2017-Oct-10 18:30N 29°34' W 090°30'2 4.0
2017-Oct-10 18:00N 29°34' W 090°32'2 3.8
2017-Oct-10 17:30N 29°34' W 090°34'2 3.4
2017-Oct-10 17:00N 29°35' W 090°36'2 3.8
2017-Oct-10 16:30N 29°35' W 090°38'0 0.5
2017-Oct-10 16:00N 29°35' W 090°39'2 3.1
2017-Oct-10 15:30N 29°36' W 090°40'2 3.9
2017-Oct-10 15:00N 29°37' W 090°42'3 3.5
2017-Oct-10 14:00N 29°34' W 090°44'2 4.2
2017-Oct-10 13:30N 29°32' W 090°46'0 0.2
2017-Oct-10 13:00N 29°32' W 090°46'0 0.0
2017-Oct-10 12:30N 29°32' W 090°46'1 1.7
2017-Oct-10 12:00N 29°32' W 090°47'3 5.0
2017-Oct-10 11:30N 29°32' W 090°50'64 3.7
2017-Oct-09 18:26N 29°50' W 092°00'2 4.5
2017-Oct-09 18:00N 29°49' W 092°02'2 3.9
2017-Oct-09 17:30N 29°48' W 092°04'1 2.9
2017-Oct-09 17:00N 29°48' W 092°06'2 3.7
2017-Oct-09 16:30N 29°47' W 092°08'2 3.9
2017-Oct-09 16:00N 29°47' W 092°10'2 3.4
2017-Oct-09 15:30N 29°47' W 092°12'1 1.7
2017-Oct-09 15:00N 29°47' W 092°13'1 1.3
2017-Oct-09 14:30N 29°48' W 092°13'1 1.3
2017-Oct-09 14:00N 29°48' W 092°14'1 1.5
2017-Oct-09 13:30N 29°48' W 092°15'1 2.5
2017-Oct-09 13:00N 29°49' W 092°16'2 4.3
2017-Oct-09 12:29N 29°50' W 092°18'39 3.5
2017-Oct-09 01:15N 29°56' W 093°03'1 4.3
2017-Oct-09 00:59N 29°56' W 093°04'2 3.9
2017-Oct-09 00:30N 29°56' W 093°07'2 3.8
2017-Oct-09 00:00N 29°56' W 093°09'2 3.6
2017-Oct-08 23:30N 29°57' W 093°10'2 4.0
2017-Oct-08 23:00N 29°59' W 093°12'2 4.1
2017-Oct-08 22:30N 30°00' W 093°14'2 3.6
2017-Oct-08 22:00N 30°02' W 093°14'2 3.3
2017-Oct-08 21:30N 30°03' W 093°16'2 3.2
2017-Oct-08 21:00N 30°04' W 093°16'1 2.6
2017-Oct-08 20:30N 30°05' W 093°18'1 1.2
2017-Oct-08 20:00N 30°06' W 093°18'1 1.7
2017-Oct-08 19:30N 30°06' W 093°19'0 0.0
2017-Oct-08 19:00N 30°06' W 093°19'0 0.1
2017-Oct-08 18:30N 30°06' W 093°19'0 0.0
2017-Oct-08 18:00N 30°06' W 093°19'0 0.1
2017-Oct-08 17:30N 30°06' W 093°19'0 0.0
2017-Oct-08 17:00N 30°06' W 093°19'1 2.0
2017-Oct-08 16:30N 30°05' W 093°20'2 4.2
2017-Oct-08 16:00N 30°04' W 093°21'2 4.2
2017-Oct-08 15:30N 30°04' W 093°24'2 3.1
2017-Oct-08 15:00N 30°04' W 093°25'0 0.0
2017-Oct-08 14:30N 30°04' W 093°25'0 0.0
2017-Oct-08 14:00N 30°04' W 093°25'0 0.5
2017-Oct-08 13:30N 30°04' W 093°26'0 0.1
2017-Oct-08 13:00N 30°04' W 093°26'0 0.1
2017-Oct-08 12:30N 30°04' W 093°26'0 0.0
2017-Oct-08 12:00N 30°04' W 093°26'0 0.0
2017-Oct-08 11:30N 30°04' W 093°26'0 0.7
2017-Oct-08 11:00N 30°04' W 093°26'1 2.3
2017-Oct-08 10:30N 30°04' W 093°28'1 2.3
2017-Oct-08 10:00N 30°04' W 093°29'0 1.0
2017-Oct-08 09:30N 30°04' W 093°29'0 0.8
2017-Oct-08 08:59N 30°04' W 093°30'1 2.2
2017-Oct-08 08:30N 30°04' W 093°31'2 4.1
2017-Oct-08 08:00N 30°04' W 093°33'2 4.1
2017-Oct-08 07:29N 30°04' W 093°36'3 4.2
2017-Oct-08 06:53N 30°04' W 093°39'72 3.6
2017-Oct-07 11:01N 29°29' W 094°52'1 5.4
2017-Oct-07 10:55N 29°30' W 094°52'2 5.6
2017-Oct-07 10:30N 29°31' W 094°53'3 5.6
2017-Oct-07 10:00N 29°34' W 094°55'3 5.6
2017-Oct-07 09:30N 29°36' W 094°57'2 4.6
2017-Oct-07 09:00N 29°38' W 094°58'2 4.7
2017-Oct-07 08:30N 29°41' W 094°59'2 4.5
2017-Oct-07 08:00N 29°42' W 095°01'2 4.3
2017-Oct-07 07:30N 29°44' W 095°02'3 4.6
2017-Oct-07 06:56N 29°46' W 095°04'1 2.4
2017-Oct-07 06:29N 29°46' W 095°05'0 0.0
2017-Oct-07 05:46N 29°46' W 095°05'0 1.1
2017-Oct-07 05:30N 29°46' W 095°05'1 0.8
2017-Oct-07 04:51N 29°46' W 095°06'0 0.1
2017-Oct-07 02:39N 29°46' W 095°06'0 1.0
2017-Oct-07 02:09N 29°45' W 095°06'1 2.7
2017-Oct-07 01:55N 29°46' W 095°05'0 0.2
2017-Oct-07 01:26N 29°46' W 095°05'1 1.5
2017-Oct-07 00:52N 29°46' W 095°04'2 4.4
2017-Oct-07 00:29N 29°44' W 095°03'2 4.3
2017-Oct-06 23:58N 29°43' W 095°01'1 3.0
2017-Oct-06 23:30N 29°42' W 095°00'3 5.1
2017-Oct-06 23:00N 29°40' W 094°58'3 5.4
2017-Oct-06 22:30N 29°37' W 094°58'3 5.2
2017-Oct-06 22:00N 29°35' W 094°56'3 5.3
2017-Oct-06 21:30N 29°33' W 094°54'45 3.3
2017-Oct-06 07:58N 29°45' W 094°05'24 5.4
2017-Oct-06 03:28N 30°02' W 093°44'2 5.3
2017-Oct-06 03:00N 30°03' W 093°42'2 4.7
2017-Oct-06 02:30N 30°04' W 093°40'2 4.6
2017-Oct-06 02:00N 30°04' W 093°37'2 4.9
2017-Oct-06 01:30N 30°04' W 093°34'3 5.2
2017-Oct-06 01:00N 30°04' W 093°31'3 5.1
2017-Oct-06 00:30N 30°04' W 093°28'3 5.2
2017-Oct-06 00:00N 30°04' W 093°25'2 4.7
2017-Oct-05 23:30N 30°04' W 093°22'2 3.9
2017-Oct-05 23:00N 30°04' W 093°20'2 4.5
2017-Oct-05 22:30N 30°06' W 093°19'1 2.7
2017-Oct-05 22:00N 30°05' W 093°18'1 2.7
2017-Oct-05 21:30N 30°04' W 093°16'0 0.1
2017-Oct-05 21:00N 30°04' W 093°16'0 0.0
2017-Oct-05 20:30N 30°04' W 093°16'0 0.0
2017-Oct-05 20:00N 30°04' W 093°16'1 1.5
2017-Oct-05 19:30N 30°04' W 093°16'0 0.0
2017-Oct-05 19:00N 30°04' W 093°16'0 0.0
2017-Oct-05 18:30N 30°04' W 093°16'0 0.3
2017-Oct-05 18:00N 30°04' W 093°16'2 3.6
2017-Oct-05 17:30N 30°02' W 093°15'1 2.9
2017-Oct-05 17:00N 30°01' W 093°14'5 3.3
2017-Oct-05 15:30N 29°57' W 093°10'6 2.4
2017-Oct-05 12:54N 29°56' W 093°03'38 3.4
2017-Oct-05 01:52N 29°51' W 092°20'2 4.1
2017-Oct-05 01:28N 29°50' W 092°18'2 3.7
2017-Oct-05 01:00N 29°49' W 092°17'2 3.9
2017-Oct-05 00:30N 29°48' W 092°15'2 4.1
2017-Oct-05 00:00N 29°47' W 092°13'1 1.2
2017-Oct-04 23:30N 29°47' W 092°12'1 1.2
2017-Oct-04 23:00N 29°47' W 092°11'0 0.1
2017-Oct-04 22:30N 29°47' W 092°11'1 3.0
2017-Oct-04 22:00N 29°47' W 092°10'2 4.1
2017-Oct-04 21:30N 29°47' W 092°07'6 3.4
2017-Oct-04 19:38N 29°50' W 092°01'0 0.4
2017-Oct-04 19:30N 29°50' W 092°01'0 0.1
2017-Oct-04 19:00N 29°50' W 092°01'2 3.3
2017-Oct-04 18:30N 29°49' W 092°02'2 4.0
2017-Oct-04 18:00N 29°48' W 092°05'2 3.8
2017-Oct-04 17:30N 29°48' W 092°07'2 3.9
2017-Oct-04 17:00N 29°47' W 092°09'2 3.8
2017-Oct-04 16:30N 29°47' W 092°11'1 2.7
2017-Oct-04 16:00N 29°47' W 092°12'1 1.4
2017-Oct-04 15:30N 29°47' W 092°13'1 2.3
2017-Oct-04 15:00N 29°48' W 092°14'0 0.6
2017-Oct-04 14:30N 29°48' W 092°15'1 1.7
2017-Oct-04 14:00N 29°48' W 092°16'45 3.7
2017-Oct-04 01:52N 29°56' W 093°06'1 3.3
2017-Oct-04 01:30N 29°56' W 093°08'2 3.5
2017-Oct-04 01:00N 29°56' W 093°10'2 3.4
2017-Oct-04 00:30N 29°58' W 093°11'2 3.9
2017-Oct-04 00:00N 29°59' W 093°12'2 3.8
2017-Oct-03 23:30N 30°01' W 093°14'2 3.1
2017-Oct-03 23:00N 30°02' W 093°15'2 3.0
2017-Oct-03 22:30N 30°03' W 093°16'2 3.8
2017-Oct-03 22:00N 30°05' W 093°17'1 1.8
2017-Oct-03 21:30N 30°05' W 093°18'1 2.2
2017-Oct-03 21:00N 30°06' W 093°19'0 0.5
2017-Oct-03 20:30N 30°06' W 093°19'0 0.0
2017-Oct-03 20:00N 30°06' W 093°19'0 0.0
2017-Oct-03 19:30N 30°06' W 093°19'0 0.0
2017-Oct-03 19:00N 30°06' W 093°19'0 0.2
2017-Oct-03 18:30N 30°06' W 093°19'2 3.6
2017-Oct-03 18:00N 30°05' W 093°20'2 3.2
2017-Oct-03 17:30N 30°04' W 093°22'0 0.6
2017-Oct-03 17:00N 30°04' W 093°22'0 0.0
2017-Oct-03 16:30N 30°04' W 093°22'0 0.0
2017-Oct-03 16:00N 30°04' W 093°22'0 0.0
2017-Oct-03 15:30N 30°04' W 093°22'0 0.1
2017-Oct-03 15:00N 30°04' W 093°22'0 0.0
2017-Oct-03 14:00N 30°04' W 093°22'0 0.1
2017-Oct-03 13:30N 30°04' W 093°22'0 0.0
2017-Oct-03 13:00N 30°04' W 093°22'0 0.0
2017-Oct-03 12:30N 30°04' W 093°22'0 0.1
2017-Oct-03 12:00N 30°04' W 093°22'1 2.7
2017-Oct-03 11:30N 30°04' W 093°24'3 4.7
2017-Oct-03 10:54N 30°04' W 093°27'2 4.8
2017-Oct-03 10:30N 30°04' W 093°29'3 4.9
2017-Oct-03 09:54N 30°04' W 093°32'77 3.2
2017-Oct-02 09:52N 29°30' W 094°52'2 4.8
2017-Oct-02 09:30N 29°31' W 094°53'2 4.5
2017-Oct-02 09:00N 29°33' W 094°54'2 5.0
2017-Oct-02 08:30N 29°35' W 094°56'3 5.1
2017-Oct-02 08:00N 29°37' W 094°58'3 5.4
2017-Oct-02 07:30N 29°40' W 094°59'2 4.8
2017-Oct-02 07:00N 29°42' W 094°60'2 3.5
2017-Oct-02 06:23N 29°44' W 095°01'2 4.3
2017-Oct-02 06:00N 29°44' W 095°03'2 3.7
2017-Oct-02 05:21N 29°46' W 095°05'1 1.7
2017-Oct-02 04:55N 29°45' W 095°06'0 0.2
2017-Oct-02 04:03N 29°46' W 095°06'0 0.0
2017-Oct-02 03:59N 29°46' W 095°06'0 0.1
2017-Oct-02 03:02N 29°46' W 095°06'0 0.4
2017-Oct-02 02:53N 29°46' W 095°06'0 0.2
2017-Oct-02 02:26N 29°46' W 095°06'0 0.0
2017-Oct-02 01:58N 29°46' W 095°06'0 0.2
2017-Oct-02 01:28N 29°46' W 095°06'3 2.8
2017-Oct-02 00:34N 29°44' W 095°03'0 5.6
2017-Oct-02 00:30N 29°44' W 095°03'2 4.6
2017-Oct-02 00:00N 29°42' W 095°01'3 5.3
2017-Oct-01 23:30N 29°41' W 094°59'3 5.9
2017-Oct-01 23:00N 29°38' W 094°58'3 6.0
2017-Oct-01 22:30N 29°35' W 094°56'  

Dump ship's entire track history